createdAt,value
2022-08-17T00:00:16.587Z,129.50
2022-08-17T00:03:17.217Z,131.38
2022-08-17T00:06:01.244Z,133.75
2022-08-17T00:08:34.938Z,134.48
2022-08-17T00:11:06.203Z,131.85
2022-08-17T00:13:56.295Z,131.82
2022-08-17T00:16:56.359Z,132.73
2022-08-17T00:19:23.302Z,130.68
2022-08-17T00:22:28.635Z,128.23
2022-08-17T00:24:40.664Z,125.57
2022-08-17T00:27:08.241Z,126.03
2022-08-17T00:29:35.703Z,124.07
2022-08-17T00:33:13.956Z,120.80
2022-08-17T00:34:51.256Z,120.15
2022-08-17T00:37:18.681Z,118.38
2022-08-17T00:39:46.429Z,115.65
2022-08-17T00:42:17.133Z,119.07
2022-08-17T00:44:45.587Z,124.97
2022-08-17T00:47:13.628Z,118.93
2022-08-17T00:49:41.048Z,125.53
2022-08-17T00:52:16.780Z,126.30
2022-08-17T00:54:47.071Z,128.48
2022-08-17T00:57:26.672Z,127.88
2022-08-17T01:00:02.330Z,127.68
2022-08-17T01:02:42.294Z,127.13
2022-08-17T01:05:16.577Z,127.93
2022-08-17T01:07:48.087Z,126.63
2022-08-17T01:10:59.360Z,124.65
2022-08-17T01:13:07.246Z,126.50
2022-08-17T01:15:41.081Z,124.28
2022-08-17T01:18:14.733Z,125.78
2022-08-17T01:20:48.644Z,125.75
2022-08-17T01:23:20.424Z,124.32
2022-08-17T01:25:55.744Z,121.22
2022-08-17T01:28:33.489Z,121.85
2022-08-17T01:31:13.706Z,121.40
2022-08-17T01:33:41.254Z,122.07
2022-08-17T01:36:09.126Z,121.13
2022-08-17T01:38:38.961Z,127.15
2022-08-17T01:41:12.597Z,122.15
2022-08-17T01:43:55.457Z,124.25
2022-08-17T01:46:31.985Z,122.35
2022-08-17T01:49:00.510Z,122.22
2022-08-17T01:51:34.176Z,126.00
2022-08-17T01:54:05.680Z,123.20
2022-08-17T01:56:38.528Z,122.32
2022-08-17T01:59:06.623Z,123.45
2022-08-17T02:01:35.196Z,122.97
2022-08-17T02:04:02.966Z,123.28
2022-08-17T02:06:32.831Z,126.13
2022-08-17T02:09:16.898Z,125.45
2022-08-17T02:11:46.217Z,121.82
2022-08-17T02:14:14.277Z,123.45
2022-08-17T02:16:42.491Z,119.85
2022-08-17T02:19:14.499Z,116.10
2022-08-17T02:21:44.760Z,117.13
2022-08-17T02:24:17.044Z,116.82
2022-08-17T02:26:47.462Z,113.53
2022-08-17T02:29:15.963Z,98.43
2022-08-17T02:31:45.618Z,121.00
2022-08-17T02:34:13.170Z,129.95
2022-08-17T02:36:40.547Z,127.97
2022-08-17T02:39:10.839Z,101.97
2022-08-17T02:41:39.567Z,131.30
2022-08-17T02:44:08.012Z,131.02
2022-08-17T02:46:35.598Z,138.55
2022-08-17T02:49:03.773Z,175.45
2022-08-17T02:51:32.694Z,169.98
2022-08-17T02:54:05.336Z,174.10
2022-08-17T02:56:47.331Z,167.88
2022-08-17T02:59:14.790Z,165.80
2022-08-17T03:01:42.451Z,158.77
2022-08-17T03:04:09.916Z,158.57
2022-08-17T03:06:37.688Z,141.90
2022-08-17T03:09:05.253Z,141.90
2022-08-17T03:11:32.941Z,139.15
2022-08-17T03:14:00.329Z,135.75
2022-08-17T03:16:27.868Z,136.50
2022-08-17T03:18:55.374Z,120.00
2022-08-17T03:21:22.808Z,167.85
2022-08-17T03:23:54.459Z,173.30
2022-08-17T03:26:22.293Z,173.93
2022-08-17T03:28:52.696Z,175.10
2022-08-17T03:31:21.673Z,166.35
2022-08-17T03:33:51.481Z,174.88
2022-08-17T03:36:20.197Z,162.60
2022-08-17T03:38:47.468Z,138.60
2022-08-17T03:41:14.953Z,183.05
2022-08-17T03:43:42.334Z,183.35
2022-08-17T03:46:35.220Z,184.18
2022-08-17T03:49:23.880Z,180.80
2022-08-17T03:52:09.925Z,180.18
2022-08-17T03:54:56.094Z,182.65
2022-08-17T03:57:24.220Z,182.98
2022-08-17T03:59:52.344Z,181.23
2022-08-17T04:02:25.906Z,186.32
2022-08-17T04:04:54.043Z,185.20
2022-08-17T04:07:24.382Z,182.63
2022-08-17T04:09:52.422Z,181.98
2022-08-17T04:12:24.284Z,184.77
2022-08-17T04:14:54.773Z,182.15
2022-08-17T04:17:28.130Z,180.95
2022-08-17T04:19:56.602Z,181.93
2022-08-17T04:22:31.204Z,181.63
2022-08-17T04:25:04.687Z,181.50
2022-08-17T04:27:32.159Z,179.70
2022-08-17T04:30:01.732Z,175.73
2022-08-17T04:33:04.811Z,160.57
2022-08-17T04:35:30.490Z,162.18
2022-08-17T04:37:59.725Z,176.63
2022-08-17T04:40:47.171Z,177.73
2022-08-17T04:43:18.687Z,180.77
2022-08-17T04:46:08.662Z,178.77
2022-08-17T04:48:40.659Z,174.23
2022-08-17T04:51:14.868Z,170.10
2022-08-17T04:53:44.861Z,167.98
2022-08-17T04:56:19.195Z,171.85
2022-08-17T04:58:49.909Z,170.73
2022-08-17T05:01:23.809Z,171.32
2022-08-17T05:03:56.692Z,164.20
2022-08-17T05:06:24.365Z,166.07
2022-08-17T05:08:51.827Z,168.25
2022-08-17T05:11:19.839Z,166.82
2022-08-17T05:13:50.403Z,165.65
2022-08-17T05:16:22.631Z,165.23
2022-08-17T05:18:50.733Z,165.77
2022-08-17T05:21:20.165Z,166.38
2022-08-17T05:23:56.234Z,161.95
2022-08-17T05:26:26.810Z,149.65
2022-08-17T05:29:02.423Z,144.80
2022-08-17T05:31:30.802Z,156.82
2022-08-17T05:33:58.893Z,133.98
2022-08-17T05:36:42.229Z,151.50
2022-08-17T05:39:16.901Z,159.90
2022-08-17T05:41:47.536Z,164.40
2022-08-17T05:44:15.708Z,158.27
2022-08-17T05:46:49.167Z,151.55
2022-08-17T05:49:21.860Z,151.52
2022-08-17T05:51:58.946Z,155.43
2022-08-17T05:54:29.843Z,141.48
2022-08-17T05:57:26.264Z,143.43
2022-08-17T06:00:30.032Z,139.80
2022-08-17T06:03:25.328Z,134.20
2022-08-17T06:06:17.740Z,135.82
2022-08-17T06:09:08.041Z,132.30
2022-08-17T06:11:47.175Z,129.68
2022-08-17T06:14:40.764Z,133.00
2022-08-17T06:17:22.179Z,135.43
2022-08-17T06:19:58.422Z,133.57
2022-08-17T06:22:41.154Z,129.13
2022-08-17T06:25:42.708Z,132.75
2022-08-17T06:28:14.875Z,134.80
2022-08-17T06:30:58.585Z,137.30
2022-08-17T06:33:35.634Z,137.30
2022-08-17T06:36:22.514Z,131.20
2022-08-17T06:39:21.162Z,135.60
2022-08-17T06:42:07.390Z,137.55
2022-08-17T06:44:57.629Z,139.95
2022-08-17T06:47:53.155Z,137.93
2022-08-17T06:50:42.634Z,126.75
2022-08-17T06:53:32.080Z,123.15
2022-08-17T06:56:10.541Z,132.88
2022-08-17T06:58:43.500Z,132.13
2022-08-17T07:01:13.145Z,133.23
2022-08-17T07:03:54.887Z,136.57
2022-08-17T07:06:26.691Z,135.93
2022-08-17T07:09:31.537Z,152.65
2022-08-17T07:12:16.409Z,163.77
2022-08-17T07:14:53.116Z,164.45
2022-08-17T07:17:57.734Z,165.45
2022-08-17T07:20:15.426Z,159.93
2022-08-17T07:23:00.499Z,157.25
2022-08-17T07:25:30.778Z,153.90
2022-08-17T07:28:02.065Z,166.10
2022-08-17T07:30:46.809Z,166.15
2022-08-17T07:33:27.781Z,168.32
2022-08-17T07:35:58.292Z,161.57
2022-08-17T07:38:34.436Z,162.57
2022-08-17T07:41:09.950Z,159.90
2022-08-17T07:43:40.225Z,153.85
2022-08-17T07:46:42.094Z,163.07
2022-08-17T07:49:09.487Z,157.38
2022-08-17T07:51:48.292Z,159.00
2022-08-17T07:54:16.054Z,155.27
2022-08-17T07:57:01.647Z,160.27
2022-08-17T07:59:36.861Z,163.43
2022-08-17T08:02:17.185Z,162.02
2022-08-17T08:05:01.429Z,160.30
2022-08-17T08:07:50.655Z,158.32
2022-08-17T08:10:42.780Z,149.02
2022-08-17T08:13:23.139Z,151.23
2022-08-17T08:15:57.166Z,151.20
2022-08-17T08:18:53.438Z,145.90
2022-08-17T08:21:46.854Z,147.98
2022-08-17T08:24:40.942Z,136.00
2022-08-17T08:27:22.395Z,146.73
2022-08-17T08:30:12.362Z,147.52
2022-08-17T08:33:04.729Z,147.10
2022-08-17T08:35:55.575Z,146.60
2022-08-17T08:38:45.630Z,133.40
2022-08-17T08:41:33.450Z,146.02
2022-08-17T08:44:13.028Z,134.15
2022-08-17T08:46:52.388Z,132.98
2022-08-17T08:50:01.251Z,140.45
2022-08-17T08:52:43.874Z,134.95
2022-08-17T08:55:49.595Z,135.27
2022-08-17T08:58:31.343Z,147.55
2022-08-17T09:01:16.714Z,151.23
2022-08-17T09:04:21.505Z,154.88
2022-08-17T09:07:01.646Z,142.85
2022-08-17T09:09:47.519Z,155.18
2022-08-17T09:12:33.574Z,159.38
2022-08-17T09:15:27.826Z,159.50
2022-08-17T09:19:00.665Z,159.77
2022-08-17T09:24:00.106Z,158.05
2022-08-17T09:27:05.584Z,158.55
2022-08-17T09:29:37.554Z,154.05
2022-08-17T09:32:29.735Z,157.68
2022-08-17T09:35:06.762Z,159.15
2022-08-17T09:38:19.101Z,155.02
2022-08-17T09:40:55.677Z,153.45
2022-08-17T09:43:45.119Z,150.93
2022-08-17T09:46:38.967Z,142.20
2022-08-17T09:49:42.826Z,137.18
2022-08-17T09:52:19.995Z,147.65
2022-08-17T09:54:48.583Z,150.40
2022-08-17T09:57:33.165Z,149.38
2022-08-17T10:00:25.259Z,145.02
2022-08-17T10:03:16.365Z,131.63
2022-08-17T10:05:56.630Z,140.07
2022-08-17T10:08:41.745Z,144.73
2022-08-17T10:11:19.345Z,145.45
2022-08-17T10:14:02.844Z,137.10
2022-08-17T10:17:00.524Z,138.30
2022-08-17T10:19:38.008Z,135.43
2022-08-17T10:22:53.370Z,133.35
2022-08-17T10:25:54.576Z,132.40
2022-08-17T10:28:30.323Z,134.13
2022-08-17T10:31:30.855Z,135.43
2022-08-17T10:34:19.420Z,145.65
2022-08-17T10:37:12.805Z,141.93
2022-08-17T10:40:08.075Z,140.57
2022-08-17T10:42:45.840Z,142.65
2022-08-17T10:45:21.723Z,143.50
2022-08-17T10:48:06.947Z,143.35
2022-08-17T10:50:46.430Z,141.93
2022-08-17T10:53:40.358Z,139.88
2022-08-17T10:56:14.042Z,138.40
2022-08-17T10:58:55.657Z,134.48
2022-08-17T11:01:44.230Z,133.23
2022-08-17T11:04:42.496Z,128.52
2022-08-17T11:07:13.028Z,123.95
2022-08-17T11:10:01.997Z,121.72
2022-08-17T11:13:07.983Z,121.28
2022-08-17T11:16:06.147Z,119.35
2022-08-17T11:18:56.839Z,114.00
2022-08-17T11:21:58.422Z,123.90
2022-08-17T11:24:33.807Z,120.22
2022-08-17T11:27:05.737Z,111.40
2022-08-17T11:30:02.502Z,123.90
2022-08-17T11:32:48.771Z,122.10
2022-08-17T11:35:22.070Z,126.20
2022-08-17T11:38:14.021Z,131.32
2022-08-17T11:41:17.747Z,131.52
2022-08-17T11:44:08.212Z,130.88
2022-08-17T11:47:20.544Z,134.18
2022-08-17T11:50:33.588Z,135.48
2022-08-17T11:53:01.360Z,138.13
2022-08-17T11:55:35.670Z,135.40
2022-08-17T11:58:29.702Z,131.70
2022-08-17T12:01:07.682Z,129.73
2022-08-17T12:03:37.867Z,130.35
2022-08-17T12:06:21.075Z,119.85
2022-08-17T12:09:00.844Z,120.75
2022-08-17T12:11:55.102Z,115.32
2022-08-17T12:14:45.441Z,114.55
2022-08-17T12:17:39.695Z,127.15
2022-08-17T12:20:32.480Z,125.57
2022-08-17T12:23:20.551Z,125.47
2022-08-17T12:26:00.597Z,125.60
2022-08-17T12:28:34.034Z,94.70
2022-08-17T12:31:07.966Z,115.90
2022-08-17T12:33:37.484Z,120.65
2022-08-17T12:36:08.871Z,131.27
2022-08-17T12:38:38.212Z,123.80
2022-08-17T12:41:26.181Z,136.73
2022-08-17T12:44:03.028Z,130.98
2022-08-17T12:46:36.113Z,147.88
2022-08-17T12:52:12.792Z,137.75
2022-08-17T12:55:01.972Z,141.20
2022-08-17T12:57:38.329Z,141.18
2022-08-17T13:00:11.614Z,149.00
2022-08-17T13:02:42.007Z,150.10
2022-08-17T13:05:21.973Z,151.85
2022-08-17T13:07:50.883Z,144.82
2022-08-17T13:10:25.524Z,141.30
2022-08-17T13:12:56.328Z,139.10
2022-08-17T13:15:44.347Z,137.85
2022-08-17T13:18:39.308Z,126.60
2022-08-17T13:21:22.218Z,129.38
2022-08-17T13:24:03.466Z,129.00
2022-08-17T13:26:39.655Z,128.70
2022-08-17T13:29:17.462Z,125.25
2022-08-17T13:31:52.636Z,130.02
2022-08-17T13:34:26.609Z,134.27
2022-08-17T13:37:25.974Z,128.38
2022-08-17T13:39:55.767Z,124.15
2022-08-17T13:42:35.148Z,134.15
2022-08-17T13:45:36.003Z,132.38
2022-08-17T13:48:07.336Z,146.80
2022-08-17T13:53:22.671Z,437.75
2022-08-17T13:56:37.293Z,184.18
2022-08-17T13:59:14.056Z,180.30
2022-08-17T14:01:43.928Z,173.85
2022-08-17T14:04:17.895Z,173.25
2022-08-17T14:07:09.495Z,175.15
2022-08-17T14:09:38.987Z,168.27
2022-08-17T14:12:15.524Z,164.02
2022-08-17T14:14:43.800Z,157.63
2022-08-17T14:17:11.723Z,153.10
2022-08-17T14:19:39.802Z,149.02
2022-08-17T14:22:23.789Z,150.63
2022-08-17T14:24:51.601Z,145.43
2022-08-17T14:27:20.594Z,140.38
2022-08-17T14:29:49.636Z,132.38
2022-08-17T14:32:23.258Z,128.52
2022-08-17T14:34:51.835Z,131.95
2022-08-17T14:37:20.886Z,128.32
2022-08-17T14:39:48.605Z,127.50
2022-08-17T14:42:17.761Z,129.23
2022-08-17T14:44:47.537Z,132.20
2022-08-17T14:47:15.054Z,131.82
2022-08-17T14:49:42.773Z,145.90
2022-08-17T14:52:13.571Z,139.40
2022-08-17T14:54:45.776Z,139.07
2022-08-17T14:57:26.036Z,137.57
2022-08-17T15:00:02.305Z,126.93
2022-08-17T15:02:31.085Z,118.13
2022-08-17T15:05:04.827Z,109.40
2022-08-17T15:07:32.329Z,106.38
2022-08-17T15:10:02.964Z,104.70
2022-08-17T15:12:33.662Z,103.95
2022-08-17T15:15:05.118Z,113.97
2022-08-17T15:17:43.673Z,118.63
2022-08-17T15:20:21.061Z,106.40
2022-08-17T15:22:56.220Z,108.97
2022-08-17T15:25:25.952Z,113.85
2022-08-17T15:27:54.172Z,93.13
2022-08-17T15:30:22.273Z,84.37
2022-08-17T15:32:54.415Z,95.60
2022-08-17T15:35:29.968Z,93.43
2022-08-17T15:38:09.758Z,92.07
2022-08-17T15:40:41.675Z,83.20
2022-08-17T15:43:11.738Z,117.03
2022-08-17T15:45:40.127Z,127.57
2022-08-17T15:48:09.106Z,127.78
2022-08-17T15:50:37.116Z,127.20
2022-08-17T15:53:05.148Z,125.43
2022-08-17T15:55:33.818Z,122.28
2022-08-17T15:58:01.625Z,116.90
2022-08-17T16:05:48.037Z,177.13
2022-08-17T16:08:20.713Z,133.10
2022-08-17T16:13:18.961Z,124.97
2022-08-17T16:15:56.929Z,126.25
2022-08-17T16:18:31.525Z,124.57
2022-08-17T16:21:23.770Z,121.43
2022-08-17T16:23:56.345Z,133.18
2022-08-17T16:26:24.392Z,122.40
2022-08-17T16:28:52.490Z,121.00
2022-08-17T16:31:20.314Z,119.15
2022-08-17T16:34:16.381Z,118.80
2022-08-17T16:36:38.681Z,115.70
2022-08-17T16:39:06.139Z,101.50
2022-08-17T16:41:45.853Z,97.20
2022-08-17T16:44:18.826Z,92.10
2022-08-17T16:46:47.682Z,76.75
2022-08-17T16:49:35.169Z,94.68
2022-08-17T16:52:06.112Z,100.13
2022-08-17T16:54:35.667Z,87.68
2022-08-17T16:57:05.316Z,82.57
2022-08-17T16:59:40.846Z,93.35
2022-08-17T17:02:14.389Z,114.90
2022-08-17T17:04:50.447Z,112.00
2022-08-17T17:07:41.195Z,109.82
2022-08-17T17:10:13.047Z,110.60
2022-08-17T17:13:02.971Z,110.82
2022-08-17T17:15:54.437Z,115.18
2022-08-17T17:18:39.153Z,114.10
2022-08-17T17:21:12.598Z,108.50
2022-08-17T17:24:00.148Z,106.85
2022-08-17T17:26:39.318Z,103.35
2022-08-17T17:29:28.181Z,103.85
2022-08-17T17:32:09.617Z,86.07
2022-08-17T17:34:38.153Z,72.43
2022-08-17T17:39:59.344Z,143.93
2022-08-17T17:42:31.682Z,85.72
2022-08-17T17:45:21.208Z,99.88
2022-08-17T17:47:49.197Z,103.80
2022-08-17T17:50:19.250Z,89.65
2022-08-17T17:53:10.787Z,100.70
2022-08-17T17:55:56.772Z,105.10
2022-08-17T17:58:42.748Z,105.25
2022-08-17T18:01:19.334Z,101.88
2022-08-17T18:04:20.360Z,102.63
2022-08-17T18:07:06.232Z,102.82
2022-08-17T18:10:29.330Z,104.53
2022-08-17T18:13:17.760Z,107.90
2022-08-17T18:15:51.460Z,106.35
2022-08-17T18:18:19.477Z,103.50
2022-08-17T18:20:56.279Z,101.35
2022-08-17T18:23:28.484Z,87.22
2022-08-17T18:25:57.229Z,104.18
2022-08-17T18:28:39.856Z,90.20
2022-08-17T18:31:21.610Z,103.30
2022-08-17T18:33:55.075Z,109.68
2022-08-17T18:36:40.888Z,110.18
2022-08-17T18:39:15.970Z,105.88
2022-08-17T18:41:49.429Z,105.53
2022-08-17T18:47:15.961Z,104.80
2022-08-17T18:49:49.525Z,103.97
2022-08-17T18:52:29.093Z,98.50
2022-08-17T18:55:30.368Z,104.28
2022-08-17T18:58:17.513Z,99.25
2022-08-17T19:00:47.860Z,101.38
2022-08-17T19:03:20.823Z,103.43
2022-08-17T19:05:54.634Z,97.18
2022-08-17T19:11:05.303Z,130.50
2022-08-17T19:14:12.019Z,108.93
2022-08-17T19:16:53.708Z,107.18
2022-08-17T19:19:31.232Z,107.65
2022-08-17T19:22:17.028Z,101.65
2022-08-17T19:25:17.882Z,105.10
2022-08-17T19:28:22.575Z,173.38
2022-08-17T19:31:04.732Z,172.77
2022-08-17T19:33:32.926Z,167.88
2022-08-17T19:36:10.063Z,97.38
2022-08-17T19:38:55.934Z,99.47
2022-08-17T19:41:33.940Z,97.22
2022-08-17T19:44:33.399Z,96.72
2022-08-17T19:47:43.117Z,97.53
2022-08-17T19:50:29.400Z,82.25
2022-08-17T19:55:34.137Z,90.18
2022-08-17T19:58:32.186Z,93.22
2022-08-17T20:01:01.747Z,92.53
2022-08-17T20:03:46.391Z,84.53
2022-08-17T20:08:55.622Z,111.53
2022-08-17T20:11:39.159Z,93.43
2022-08-17T20:14:17.702Z,91.30
2022-08-17T20:16:45.325Z,93.70
2022-08-17T20:19:29.434Z,93.30
2022-08-17T20:22:19.057Z,89.30
2022-08-17T20:25:02.009Z,81.10
2022-08-17T20:27:34.270Z,90.57
2022-08-17T20:30:11.779Z,88.72
2022-08-17T20:32:53.898Z,89.32
2022-08-17T20:35:23.963Z,86.30
2022-08-17T20:38:11.130Z,87.25
2022-08-17T20:41:04.423Z,87.70
2022-08-17T20:43:34.849Z,78.82
2022-08-17T20:46:20.515Z,88.07
2022-08-17T20:48:53.043Z,87.78
2022-08-17T20:51:28.568Z,88.70
2022-08-17T20:53:58.810Z,91.30
2022-08-17T20:56:44.534Z,89.25
2022-08-17T20:59:21.257Z,90.65
2022-08-17T21:02:04.142Z,85.88
2022-08-17T21:04:50.149Z,83.45
2022-08-17T21:07:42.911Z,85.38
2022-08-17T21:10:19.578Z,85.40
2022-08-17T21:12:49.919Z,85.47
2022-08-17T21:15:39.660Z,86.18
2022-08-17T21:18:26.127Z,90.43
2022-08-17T21:21:30.853Z,79.35
2022-08-17T21:24:25.299Z,81.50
2022-08-17T21:27:30.529Z,82.88
2022-08-17T21:30:09.986Z,77.85
2022-08-17T21:32:41.829Z,81.65
2022-08-17T21:35:23.001Z,63.80
2022-08-17T21:38:02.718Z,69.72
2022-08-17T21:40:33.778Z,77.57
2022-08-17T21:43:17.271Z,77.63
2022-08-17T21:45:59.370Z,77.13
2022-08-17T21:48:28.483Z,78.88
2022-08-17T21:51:02.068Z,78.28
2022-08-17T21:53:45.023Z,74.30
2022-08-17T21:56:21.265Z,76.90
2022-08-17T21:59:04.432Z,76.30
2022-08-17T22:01:40.431Z,74.82
2022-08-17T22:04:11.587Z,70.25
2022-08-17T22:06:56.696Z,71.93
2022-08-17T22:14:53.424Z,76.97
